Thunder radar more information blitzortung!


Radar de pluja more information rain snow radar


Visita la nostra xarxa de llocs de meteo:

Template documentation
and downloads

And another site



No particular awareness of the weather is required.    There are no Weather-warnings

Pagina Historial Weather Underground text

Diari Resum Agost 17, 2017 Unitats:  Imperial    Mètric   Tant
« Previous Dia
SegĂźent Dia »
Diari Setmana Mensual Anual Personalitzada
  Maxima: Minima: Media:
Temperatura: TemperatureC °F 20.1 °F 26.2 °F
Punt de rosada: DewpointC °F 14.2 °F 16 °F
Humitat: Humidity % 34 % 55 %
Wind Speed: WindSpeedKMH mph 0.0 mph 5.4 mph
RĂ fegues de vent: WindSpeedGustKMH mph - -
Vent:- - SSW
Pression baro: PressurehPa in 1014.8 in -
Precipitacions: 0.0 in    
Historical Graphs
 
 
Dades de taula per Agost 17, 2017
Temps Temperatura Punt de rosada Pression baro Vent Wind Speed RĂ fegues de vent Humitat Rainfall Rate (Hourly)
TemperatureC °F DewpointC °F PressurehPa in Calm     Humidity % HourlyPrecipMM in
00:02 22.8 °F 14.6 °F 1017.8 in Calm     60 % 0.0 in
00:07 22.8 °F 14.6 °F 1017.8 in Calm     60 % 0.0 in
00:12 22.8 °F 14.6 °F 1017.8 in Calm     60 % 0.0 in
00:17 22.7 °F 14.6 °F 1017.8 in Calm     60 % 0.0 in
00:22 22.7 °F 14.6 °F 1017.8 in Calm     60 % 0.0 in
00:27 22.6 °F 14.4 °F 1017.8 in Calm     60 % 0.0 in
00:32 22.6 °F 14.4 °F 1017.8 in Calm     60 % 0.0 in
00:37 22.6 °F 14.4 °F 1017.8 in Calm     60 % 0.0 in
00:42 22.5 °F 14.3 °F 1017.8 in Calm     60 % 0.0 in
00:47 22.5 °F 14.3 °F 1017.8 in Calm     60 % 0.0 in
00:52 22.5 °F 14.3 °F 1017.8 in Calm     60 % 0.0 in
00:57 22.5 °F 14.6 °F 1017.8 in Calm     61 % 0.0 in
01:02 22.4 °F 14.5 °F 1017.8 in Calm     61 % 0.0 in
01:07 22.4 °F 14.5 °F 1017.8 in NNW 2.3 mph   61 % 0.0 in
01:12 22.5 °F 14.6 °F 1017.8 in Calm     61 % 0.0 in
01:17 22.4 °F 14.5 °F 1017.8 in Calm     61 % 0.0 in
01:22 22.4 °F 14.5 °F 1017.8 in Calm     61 % 0.0 in
01:27 22.3 °F 14.4 °F 1017.8 in Calm     61 % 0.0 in
01:32 22.3 °F 14.4 °F 1017.8 in Calm     61 % 0.0 in
01:37 22.1 °F 14.2 °F 1017.8 in Calm     61 % 0.0 in
01:42 22.0 °F 14.4 °F 1017.8 in Calm     62 % 0.0 in
01:47 21.8 °F 14.4 °F 1017.8 in Calm     63 % 0.0 in
01:52 21.7 °F 14.3 °F 1017.8 in Calm     63 % 0.0 in
01:57 21.7 °F 14.3 °F 1017.8 in Calm     63 % 0.0 in
02:02 21.7 °F 14.3 °F 1017.8 in Calm     63 % 0.0 in
02:07 21.6 °F 14.5 °F 1017.8 in Calm     64 % 0.0 in
02:12 21.5 °F 14.4 °F 1017.8 in Calm     64 % 0.0 in
02:17 21.5 °F 14.4 °F 1017.8 in Calm     64 % 0.0 in
02:22 21.5 °F 14.4 °F 1017.8 in Calm     64 % 0.0 in
02:27 21.5 °F 14.7 °F 1017.8 in Calm     65 % 0.0 in
02:32 21.4 °F 14.6 °F 1017.8 in Calm     65 % 0.0 in
02:37 21.3 °F 14.4 °F 1017.8 in WSW 2.3 mph 2.3 mph 65 % 0.0 in
02:42 21.3 °F 14.4 °F 1017.8 in SW 3.7 mph 3.7 mph 65 % 0.0 in
02:47 21.2 °F 14.3 °F 1017.8 in SW 3.7 mph 3.7 mph 65 % 0.0 in
02:52 21.2 °F 14.3 °F 1017.8 in SW 3.7 mph 3.7 mph 65 % 0.0 in
02:57 21.1 °F 14.5 °F 1017.8 in WSW 3.9 mph 3.9 mph 66 % 0.0 in
03:02 21.0 °F 14.4 °F 1017.8 in WSW 1.9 mph   66 % 0.0 in
03:07 21.0 °F 14.4 °F 1017.8 in Calm     66 % 0.0 in
03:08 21.0 °F 14.4 °F 1017.8 in Calm     66 % 0.0 in
03:13 21.2 °F 14.6 °F 1017.8 in SW 3.7 mph 3.7 mph 66 % 0.0 in
03:18 21.2 °F 14.6 °F 1017.8 in Calm     66 % 0.0 in
03:23 21.2 °F 14.6 °F 1017.8 in SW 2.3 mph 2.3 mph 66 % 0.0 in
03:28 21.2 °F 14.6 °F 1017.8 in SW 1.9 mph 1.9 mph 66 % 0.0 in
03:33 21.1 °F 14.5 °F 1017.8 in Calm     66 % 0.0 in
03:38 21.1 °F 14.7 °F 1017.8 in Calm     67 % 0.0 in
03:43 21.1 °F 14.7 °F 1017.8 in NNE 1.9 mph 1.9 mph 67 % 0.0 in
03:48 21.0 °F 14.4 °F 1017.8 in Calm     66 % 0.0 in
03:53 21.0 °F 14.4 °F 1017.8 in SW 1.9 mph 2.3 mph 66 % 0.0 in
03:58 20.9 °F 14.6 °F 1017.8 in Calm     67 % 0.0 in
04:03 20.8 °F 14.4 °F 1017.8 in Calm     67 % 0.0 in
04:08 20.7 °F 14.3 °F 1017.8 in Calm     67 % 0.0 in
04:13 20.6 °F 14.5 °F 1017.8 in Calm     68 % 0.0 in
04:18 20.7 °F 14.6 °F 1017.8 in SW 2.3 mph 2.3 mph 68 % 0.0 in
04:23 20.7 °F 14.6 °F 1017.8 in Calm     68 % 0.0 in
04:28 20.7 °F 14.6 °F 1017.8 in Calm     68 % 0.0 in
04:33 20.8 °F 14.7 °F 1017.8 in SW 2.6 mph 2.6 mph 68 % 0.0 in
04:38 20.8 °F 14.7 °F 1017.8 in Calm     68 % 0.0 in
04:43 20.9 °F 14.8 °F 1017.8 in SW 3.7 mph 3.7 mph 68 % 0.0 in
04:48 20.9 °F 14.8 °F 1017.8 in Calm     68 % 0.0 in
04:53 20.8 °F 14.7 °F 1017.8 in SW 1.9 mph 1.9 mph 68 % 0.0 in
04:58 20.8 °F 14.7 °F 1017.8 in Calm     68 % 0.0 in
05:03 20.7 °F 14.6 °F 1017.8 in Calm     68 % 0.0 in
05:08 20.8 °F 14.7 °F 1017.8 in Calm     68 % 0.0 in
05:13 20.8 °F 14.9 °F 1017.8 in Calm     69 % 0.0 in
05:18 20.8 °F 14.9 °F 1017.8 in Calm     69 % 0.0 in
05:20 20.8 °F 14.9 °F 1017.8 in Calm     69 % 0.0 in
05:22 20.8 °F 14.9 °F 1017.8 in Calm     69 % 0.0 in
05:25 20.9 °F 15.0 °F 1017.8 in Calm     69 % 0.0 in
05:30 20.9 °F 15.0 °F 1017.8 in Calm     69 % 0.0 in
05:32 20.9 °F 15.0 °F 1017.8 in Calm     69 % 0.0 in
05:42 20.9 °F 15.0 °F 1017.8 in Calm     69 % 0.0 in
05:47 20.9 °F 15.0 °F 1017.8 in Calm     69 % 0.0 in
05:52 20.9 °F 15.2 °F 1017.8 in Calm     70 % 0.0 in
05:57 20.8 °F 14.9 °F 1017.8 in Calm     69 % 0.0 in
06:02 20.8 °F 15.1 °F 1017.8 in Calm     70 % 0.0 in
06:07 20.7 °F 15.1 °F 1017.8 in Calm     70 % 0.0 in
06:12 20.7 °F 15.1 °F 1017.8 in Calm     70 % 0.0 in
06:17 20.7 °F 15.1 °F 1017.8 in Calm     70 % 0.0 in
06:22 20.7 °F 15.1 °F 1017.8 in North 2.3 mph   70 % 0.0 in
06:27 20.6 °F 14.9 °F 1017.8 in Calm     70 % 0.0 in
06:32 20.6 °F 14.9 °F 1018.8 in North 1.9 mph 1.9 mph 70 % 0.0 in
06:37 20.6 °F 14.9 °F 1018.8 in Calm     70 % 0.0 in
06:42 20.6 °F 14.9 °F 1018.8 in Calm     70 % 0.0 in
06:47 20.6 °F 14.9 °F 1017.8 in Calm     70 % 0.0 in
06:52 20.6 °F 14.9 °F 1017.8 in Calm     70 % 0.0 in
06:57 20.6 °F 14.9 °F 1017.8 in North 2.3 mph 2.3 mph 70 % 0.0 in
07:02 20.5 °F 15.1 °F 1017.8 in ENE 2.6 mph 2.6 mph 71 % 0.0 in
07:07 20.4 °F 14.9 °F 1017.8 in SE 1.9 mph 1.9 mph 71 % 0.0 in
07:12 20.3 °F 14.9 °F 1017.8 in SE 1.9 mph   71 % 0.0 in
07:17 20.3 °F 14.9 °F 1017.8 in Calm     71 % 0.0 in
07:22 20.1 °F 14.7 °F 1017.8 in WSW 1.9 mph 1.9 mph 71 % 0.0 in
07:27 20.1 °F 14.9 °F 1017.8 in Calm     72 % 0.0 in
07:32 20.1 °F 14.9 °F 1016.8 in Calm     72 % 0.0 in
07:37 20.2 °F 15.0 °F 1016.8 in Calm     72 % 0.0 in
07:42 20.2 °F 15.0 °F 1016.8 in WSW 1.9 mph 1.9 mph 72 % 0.0 in
07:47 20.2 °F 15.0 °F 1016.8 in SW 3.7 mph 3.7 mph 72 % 0.0 in
07:48 20.2 °F 15.0 °F 1016.8 in SW 1.9 mph 1.9 mph 72 % 0.0 in
07:53 20.2 °F 15.0 °F 1016.8 in South 2.3 mph 2.3 mph 72 % 0.0 in
07:58 20.4 °F 15.2 °F 1017.8 in SW 3.7 mph 3.7 mph 72 % 0.0 in
08:03 20.5 °F 15.3 °F 1017.8 in SW 3.7 mph 3.7 mph 72 % 0.0 in
08:08 20.6 °F 15.4 °F 1017.8 in SW 3.7 mph 3.7 mph 72 % 0.0 in
08:13 20.7 °F 15.4 °F 1017.8 in SW 3.7 mph 3.7 mph 72 % 0.0 in
08:18 20.9 °F 15.7 °F 1017.8 in SW 1.9 mph   72 % 0.0 in
08:23 21.2 °F 15.9 °F 1017.8 in SW 2.3 mph 2.3 mph 72 % 0.0 in
08:28 21.4 °F 15.9 °F 1016.8 in SW 3.7 mph 3.7 mph 71 % 0.0 in
08:33 21.5 °F 16.0 °F 1016.8 in WSW 3.7 mph 3.7 mph 71 % 0.0 in
08:38 21.7 °F 16.0 °F 1016.8 in SW 1.9 mph 1.9 mph 70 % 0.0 in
08:43 22.1 °F 16.2 °F 1017.8 in Calm     69 % 0.0 in
08:48 22.9 °F 16.9 °F 1017.8 in SE 1.9 mph   69 % 0.0 in
08:53 23.3 °F 17.1 °F 1017.8 in ESE 3.7 mph 3.7 mph 68 % 0.0 in
08:58 24.0 °F 17.3 °F 1017.8 in East 3.2 mph 3.2 mph 66 % 0.0 in
09:03 23.7 °F 17.2 °F 1017.8 in ENE 3.7 mph 3.7 mph 67 % 0.0 in
09:08 24.0 °F 17.0 °F 1017.8 in NE 3.7 mph 3.7 mph 65 % 0.0 in
09:13 24.3 °F 17.3 °F 1017.8 in NNE 3.7 mph 3.7 mph 65 % 0.0 in
09:18 24.6 °F 17.3 °F 1017.8 in ENE 4.7 mph 4.7 mph 64 % 0.0 in
09:23 25.0 °F 17.2 °F 1017.8 in ENE 3.7 mph 3.7 mph 62 % 0.0 in
09:28 25.4 °F 17.6 °F 1017.8 in NW 2.6 mph   62 % 0.0 in
09:33 25.8 °F 17.7 °F 1017.8 in NW 2.6 mph 2.6 mph 61 % 0.0 in
09:38 25.8 °F 17.7 °F 1017.8 in North 1.9 mph 1.9 mph 61 % 0.0 in
09:43 25.9 °F 17.6 °F 1017.8 in ENE 3.7 mph 3.7 mph 60 % 0.0 in
09:48 25.7 °F 17.1 °F 1017.8 in ENE 3.7 mph 3.7 mph 59 % 0.0 in
09:53 26.0 °F 17.6 °F 1017.8 in ENE 1.9 mph 1.9 mph 60 % 0.0 in
09:58 26.3 °F 17.7 °F 1017.8 in SSW 3.7 mph 3.7 mph 59 % 0.0 in
10:03 26.7 °F 18.0 °F 1017.8 in West 5.6 mph 5.6 mph 59 % 0.0 in
10:08 26.5 °F 17.6 °F 1017.8 in SW 1.9 mph   58 % 0.0 in
10:13 27.2 °F 17.9 °F 1017.8 in WSW 3.7 mph 3.7 mph 57 % 0.0 in
10:18 27.4 °F 17.8 °F 1017.8 in SE 3.7 mph 3.7 mph 56 % 0.0 in
10:23 27.9 °F 18.0 °F 1017.8 in WSW 5.0 mph 5.0 mph 55 % 0.0 in
10:28 28.0 °F 17.8 °F 1017.8 in SW 6.9 mph 6.9 mph 54 % 0.0 in
10:33 28.0 °F 17.2 °F 1017.8 in SSE 5.6 mph 5.6 mph 52 % 0.0 in
10:38 28.1 °F 17.3 °F 1017.8 in SSW 5.6 mph 5.6 mph 52 % 0.0 in
10:43 28.4 °F 17.3 °F 1017.8 in South 5.6 mph 5.6 mph 51 % 0.0 in
10:48 28.7 °F 17.6 °F 1017.8 in SSW 7.4 mph 7.4 mph 51 % 0.0 in
10:53 28.8 °F 17.7 °F 1017.8 in South 5.6 mph 6.1 mph 51 % 0.0 in
10:58 29.2 °F 17.4 °F 1017.8 in SSE 9.3 mph 9.3 mph 49 % 0.0 in
11:03 29.6 °F 17.4 °F 1017.8 in WSW 9.3 mph 9.3 mph 48 % 0.0 in
11:08 30.1 °F 17.9 °F 1017.8 in SW 3.9 mph 3.9 mph 48 % 0.0 in
11:09 30.1 °F 17.9 °F 1017.8 in SW 3.9 mph 3.9 mph 48 % 0.0 in
11:14 30.3 °F 18.1 °F 1017.8 in West 14.8 mph 14.8 mph 48 % 0.0 in
11:19 29.7 °F 17.5 °F 1017.8 in SW 5.6 mph 5.6 mph 48 % 0.0 in
11:24 29.7 °F 17.5 °F 1017.8 in WSW 11.1 mph 11.1 mph 48 % 0.0 in
11:29 30.0 °F 17.4 °F 1016.8 in WSW 9.0 mph 9.0 mph 47 % 0.0 in
11:34 29.9 °F 17.0 °F 1016.8 in SW 11.1 mph 11.1 mph 46 % 0.0 in
11:39 30.1 °F 16.8 °F 1016.8 in SW 13.0 mph 13.0 mph 45 % 0.0 in
11:44 30.3 °F 17.1 °F 1017.8 in SSW 7.4 mph 7.4 mph 45 % 0.0 in
11:49 30.5 °F 17.2 °F 1017.8 in SW 13.0 mph 13.0 mph 45 % 0.0 in
11:54 30.7 °F 17.4 °F 1017.8 in WNW 5.6 mph 5.6 mph 45 % 0.0 in
11:59 30.8 °F 17.5 °F 1017.8 in SSW 5.6 mph 6.1 mph 45 % 0.0 in
12:04 31.3 °F 17.6 °F 1017.8 in SSW 3.7 mph 3.9 mph 44 % 0.0 in
12:09 31.3 °F 17.6 °F 1017.8 in SW 7.4 mph 7.4 mph 44 % 0.0 in
12:14 31.8 °F 18.1 °F 1017.8 in SW 5.6 mph 5.6 mph 44 % 0.0 in
12:19 31.9 °F 17.8 °F 1017.8 in South 5.6 mph 5.6 mph 43 % 0.0 in
12:24 32.3 °F 18.1 °F 1017.8 in SSE 6.1 mph 6.1 mph 43 % 0.0 in
12:29 32.7 °F 18.5 °F 1016.8 in West 5.3 mph 5.3 mph 43 % 0.0 in
12:34 32.4 °F 17.8 °F 1016.8 in South 9.3 mph 9.3 mph 42 % 0.0 in
12:39 32.6 °F 18.0 °F 1016.8 in South 5.6 mph 5.6 mph 42 % 0.0 in
12:44 32.3 °F 17.4 °F 1016.8 in South 5.6 mph 5.6 mph 41 % 0.0 in
12:49 33.4 °F 17.9 °F 1016.8 in WSW 3.7 mph 3.7 mph 40 % 0.0 in
12:54 33.5 °F 18.1 °F 1016.8 in SSE 7.4 mph 7.4 mph 40 % 0.0 in
12:59 33.4 °F 17.6 °F 1016.8 in South 5.6 mph 5.6 mph 39 % 0.0 in
13:04 33.2 °F 16.9 °F 1016.8 in South 7.4 mph 7.4 mph 38 % 0.0 in
13:09 33.2 °F 17.4 °F 1016.8 in SW 7.9 mph 9.0 mph 39 % 0.0 in
13:14 33.0 °F 17.2 °F 1016.8 in WSW 9.3 mph 9.3 mph 39 % 0.0 in
13:19 33.6 °F 16.9 °F 1016.8 in SE 5.6 mph 5.6 mph 37 % 0.0 in
13:24 33.7 °F 17.4 °F 1016.8 in ESE 7.4 mph 7.4 mph 38 % 0.0 in
13:29 34.0 °F 17.3 °F 1016.8 in SW 7.4 mph 7.4 mph 37 % 0.0 in
13:34 34.1 °F 17.3 °F 1016.8 in SSW 9.3 mph 9.3 mph 37 % 0.0 in
13:39 33.8 °F 17.1 °F 1016.8 in SW 13.0 mph 13.0 mph 37 % 0.0 in
13:44 33.5 °F 16.8 °F 1016.8 in ENE 9.3 mph 9.3 mph 37 % 0.0 in
13:49 34.2 °F 17.4 °F 1016.8 in SSW 9.7 mph 9.7 mph 37 % 0.0 in
13:54 34.6 °F 17.3 °F 1016.8 in SSW 5.6 mph 5.6 mph 36 % 0.0 in
13:59 34.4 °F 17.6 °F 1015.8 in SW 7.4 mph 8.7 mph 37 % 0.0 in
14:04 34.5 °F 17.3 °F 1015.8 in SW 9.0 mph 9.0 mph 36 % 0.0 in
14:09 34.4 °F 17.2 °F 1015.8 in WSW 9.3 mph 9.3 mph 36 % 0.0 in
14:14 34.7 °F 17.4 °F 1015.8 in South 13.0 mph 13.0 mph 36 % 0.0 in
14:19 34.2 °F 17.0 °F 1015.8 in SW 13.0 mph 13.0 mph 36 % 0.0 in
14:24 34.3 °F 17.1 °F 1015.8 in SW 9.3 mph 9.3 mph 36 % 0.0 in
14:29 34.2 °F 16.6 °F 1015.8 in WSW 11.1 mph 11.1 mph 35 % 0.0 in
14:34 34.5 °F 16.8 °F 1015.8 in SSE 16.9 mph 16.9 mph 35 % 0.0 in
14:39 34.2 °F 16.1 °F 1015.8 in SW 11.1 mph 11.1 mph 34 % 0.0 in
14:44 34.5 °F 16.8 °F 1015.8 in SW 9.3 mph 9.3 mph 35 % 0.0 in
14:49 34.3 °F 16.2 °F 1015.8 in WSW 18.5 mph 18.5 mph 34 % 0.0 in
14:54 34.1 °F 16.0 °F 1015.8 in SSW 9.3 mph 9.3 mph 34 % 0.0 in
14:59 34.1 °F 16.0 °F 1015.8 in WSW 13.0 mph 13.0 mph 34 % 0.0 in
15:01 34.1 °F 16.0 °F 1015.8 in WSW 13.0 mph 13.0 mph 34 % 0.0 in
15:06 33.8 °F 16.2 °F 1015.8 in South 9.3 mph 9.3 mph 35 % 0.0 in
15:11 33.8 °F 16.2 °F 1015.8 in SW 9.3 mph 9.3 mph 35 % 0.0 in
15:16 33.5 °F 15.9 °F 1014.8 in SW 16.7 mph 16.7 mph 35 % 0.0 in
15:21 33.5 °F 15.9 °F 1014.8 in SW 20.4 mph 20.4 mph 35 % 0.0 in
15:26 32.7 °F 15.7 °F 1014.8 in SSW 14.8 mph 14.8 mph 36 % 0.0 in
15:31 33.3 °F 16.2 °F 1015.8 in SW 20.9 mph 20.9 mph 36 % 0.0 in
15:36 32.9 °F 15.8 °F 1015.8 in WNW 14.8 mph 14.8 mph 36 % 0.0 in
15:41 33.0 °F 15.9 °F 1015.8 in SSW 11.1 mph 11.1 mph 36 % 0.0 in
15:46 32.8 °F 16.2 °F 1014.8 in WSW 13.0 mph 13.0 mph 37 % 0.0 in
15:51 32.6 °F 16.0 °F 1014.8 in SW 18.5 mph 18.5 mph 37 % 0.0 in
15:56 32.2 °F 15.7 °F 1014.8 in South 14.8 mph 14.8 mph 37 % 0.0 in
16:01 31.8 °F 15.7 °F 1014.8 in South 18.5 mph 18.5 mph 38 % 0.0 in
16:06 31.7 °F 15.6 °F 1014.8 in SW 13.0 mph 13.0 mph 38 % 0.0 in
16:11 32.0 °F 15.9 °F 1014.8 in WSW 18.5 mph 18.5 mph 38 % 0.0 in
16:16 31.9 °F 15.8 °F 1015.8 in SSE 11.1 mph 11.1 mph 38 % 0.0 in
16:21 32.1 °F 16.0 °F 1015.8 in South 11.1 mph 11.1 mph 38 % 0.0 in
16:26 31.6 °F 15.9 °F 1015.8 in SSW 16.7 mph 16.7 mph 39 % 0.0 in
16:31 32.1 °F 16.4 °F 1015.8 in SSW 13.0 mph 13.0 mph 39 % 0.0 in
16:36 32.0 °F 16.3 °F 1015.8 in SSE 16.4 mph 16.4 mph 39 % 0.0 in
16:41 32.1 °F 16.4 °F 1015.8 in SSE 5.6 mph 5.6 mph 39 % 0.0 in
16:46 32.3 °F 16.6 °F 1014.8 in SSW 14.8 mph 14.8 mph 39 % 0.0 in
16:51 31.9 °F 16.2 °F 1014.8 in WSW 9.3 mph 9.3 mph 39 % 0.0 in
16:56 32.0 °F 16.7 °F 1014.8 in WSW 13.0 mph 13.0 mph 40 % 0.0 in
17:01 31.7 °F 16.4 °F 1015.8 in SW 9.3 mph 9.3 mph 40 % 0.0 in
17:06 31.6 °F 16.3 °F 1015.8 in SW 11.1 mph 11.1 mph 40 % 0.0 in
17:11 31.6 °F 16.7 °F 1015.8 in SW 12.2 mph 12.2 mph 41 % 0.0 in
17:16 31.8 °F 16.9 °F 1014.8 in South 16.7 mph 16.7 mph 41 % 0.0 in
17:21 31.8 °F 16.9 °F 1014.8 in WSW 13.0 mph 13.0 mph 41 % 0.0 in
17:26 31.5 °F 16.7 °F 1014.8 in SW 14.8 mph 14.8 mph 41 % 0.0 in
17:31 31.6 °F 16.7 °F 1015.8 in WSW 12.6 mph 12.6 mph 41 % 0.0 in
17:36 31.5 °F 16.7 °F 1015.8 in WSW 11.1 mph 11.1 mph 41 % 0.0 in
17:41 31.6 °F 16.7 °F 1015.8 in SSW 9.3 mph 9.3 mph 41 % 0.0 in
17:46 31.1 °F 16.7 °F 1015.8 in South 12.2 mph 12.2 mph 42 % 0.0 in
17:51 31.2 °F 16.8 °F 1015.8 in WSW 11.1 mph 11.1 mph 42 % 0.0 in
17:56 31.2 °F 16.8 °F 1015.8 in WSW 9.3 mph 9.3 mph 42 % 0.0 in
18:01 31.3 °F 16.8 °F 1015.8 in SW 11.1 mph 11.1 mph 42 % 0.0 in
18:06 31.5 °F 17.1 °F 1015.8 in SSW 6.9 mph 6.9 mph 42 % 0.0 in
18:11 31.4 °F 16.9 °F 1015.8 in SW 11.1 mph 11.1 mph 42 % 0.0 in
18:16 30.9 °F 16.9 °F 1014.8 in SW 11.1 mph 11.1 mph 43 % 0.0 in
18:21 31.2 °F 16.8 °F 1014.8 in SW 14.8 mph 14.8 mph 42 % 0.0 in
18:26 30.5 °F 16.5 °F 1014.8 in SW 16.7 mph 16.7 mph 43 % 0.0 in
18:31 30.4 °F 16.8 °F 1015.8 in SW 9.3 mph 9.3 mph 44 % 0.0 in
18:36 30.4 °F 16.8 °F 1015.8 in SW 9.7 mph 9.7 mph 44 % 0.0 in
18:41 30.2 °F 16.6 °F 1015.8 in West 9.3 mph 9.3 mph 44 % 0.0 in
18:46 30.3 °F 16.7 °F 1015.8 in SW 13.0 mph 13.0 mph 44 % 0.0 in
18:51 29.9 °F 16.7 °F 1015.8 in SSW 9.5 mph 9.5 mph 45 % 0.0 in
18:56 29.8 °F 16.6 °F 1015.8 in SW 10.0 mph 10.0 mph 45 % 0.0 in
19:01 29.7 °F 16.5 °F 1015.8 in WSW 9.3 mph 9.3 mph 45 % 0.0 in
19:06 29.6 °F 16.8 °F 1015.8 in SSW 11.1 mph 11.1 mph 46 % 0.0 in
19:11 29.4 °F 16.6 °F 1015.8 in SW 14.8 mph 14.8 mph 46 % 0.0 in
19:16 29.1 °F 16.6 °F 1015.8 in SSW 11.1 mph 11.1 mph 47 % 0.0 in
19:21 29.0 °F 16.6 °F 1015.8 in SW 13.0 mph 13.0 mph 47 % 0.0 in
19:26 28.8 °F 16.7 °F 1015.8 in SSW 7.9 mph 7.9 mph 48 % 0.0 in
19:31 28.8 °F 16.7 °F 1015.8 in WSW 9.5 mph 9.5 mph 48 % 0.0 in
19:36 28.5 °F 16.7 °F 1015.8 in SSW 11.1 mph 11.1 mph 49 % 0.0 in
19:42 28.3 °F 16.6 °F 1015.8 in SSW 7.6 mph 7.6 mph 49 % 0.0 in
19:47 28.2 °F 16.4 °F 1015.8 in WSW 7.4 mph 7.4 mph 49 % 0.0 in
19:52 28.1 °F 16.4 °F 1015.8 in WSW 9.3 mph 9.3 mph 49 % 0.0 in
19:53 28.1 °F 16.4 °F 1015.8 in WSW 9.0 mph 9.0 mph 49 % 0.0 in
19:58 27.9 °F 16.5 °F 1015.8 in SW 9.3 mph 9.3 mph 50 % 0.0 in
20:03 27.7 °F 16.3 °F 1015.8 in SSW 11.1 mph 11.1 mph 50 % 0.0 in
20:08 27.5 °F 16.4 °F 1015.8 in SW 9.3 mph 9.3 mph 51 % 0.0 in
20:13 27.4 °F 16.4 °F 1014.8 in WSW 9.7 mph 9.7 mph 51 % 0.0 in
20:18 27.2 °F 16.2 °F 1014.8 in SW 9.5 mph 9.5 mph 51 % 0.0 in
20:23 27.0 °F 16.3 °F 1014.8 in South 9.3 mph 9.3 mph 52 % 0.0 in
20:28 26.9 °F 16.5 °F 1015.8 in WSW 5.6 mph 5.6 mph 53 % 0.0 in
20:33 26.8 °F 16.4 °F 1015.8 in SW 7.4 mph 7.4 mph 53 % 0.0 in
20:38 26.7 °F 16.3 °F 1015.8 in SW 7.4 mph 7.4 mph 53 % 0.0 in
20:39 26.7 °F 16.3 °F 1015.8 in SW 7.4 mph 7.4 mph 53 % 0.0 in
20:44 26.6 °F 16.2 °F 1015.8 in SW 5.0 mph 5.0 mph 53 % 0.0 in
20:49 26.4 °F 16.3 °F 1015.8 in SW 5.6 mph 5.6 mph 54 % 0.0 in
20:54 26.3 °F 16.2 °F 1015.8 in SW 3.7 mph 3.7 mph 54 % 0.0 in
20:59 26.1 °F 16.1 °F 1015.8 in SSW 7.4 mph 7.4 mph 54 % 0.0 in
21:04 26.0 °F 15.9 °F 1015.8 in WSW 5.6 mph 5.6 mph 54 % 0.0 in
21:09 25.9 °F 15.9 °F 1015.8 in SW 5.0 mph 5.0 mph 54 % 0.0 in
21:14 25.9 °F 16.2 °F 1016.8 in SW 3.7 mph 3.7 mph 55 % 0.0 in
21:19 25.7 °F 16.0 °F 1016.8 in SW 3.7 mph 3.7 mph 55 % 0.0 in
21:24 25.6 °F 16.2 °F 1016.8 in SSW 3.7 mph 3.7 mph 56 % 0.0 in
21:29 25.6 °F 16.2 °F 1016.8 in SW 3.7 mph   56 % 0.0 in
21:34 25.5 °F 16.1 °F 1016.8 in SW 3.7 mph 3.7 mph 56 % 0.0 in
21:39 25.3 °F 15.9 °F 1016.8 in SW 5.8 mph 5.8 mph 56 % 0.0 in
21:44 25.3 °F 16.2 °F 1016.8 in SW 3.7 mph 3.7 mph 57 % 0.0 in
21:49 25.2 °F 16.1 °F 1016.8 in WSW 3.7 mph 3.7 mph 57 % 0.0 in
21:54 25.1 °F 16.3 °F 1016.8 in WSW 3.7 mph 3.7 mph 58 % 0.0 in
21:59 25.0 °F 16.2 °F 1016.8 in WSW 3.7 mph 3.7 mph 58 % 0.0 in
22:04 25.0 °F 16.4 °F 1016.8 in WSW 3.7 mph 3.7 mph 59 % 0.0 in
22:09 24.9 °F 16.6 °F 1016.8 in WSW 3.7 mph 3.7 mph 60 % 0.0 in
22:14 24.9 °F 16.6 °F 1016.8 in WSW 3.9 mph 3.9 mph 60 % 0.0 in
22:19 24.8 °F 16.8 °F 1016.8 in WSW 3.7 mph 3.7 mph 61 % 0.0 in
22:24 24.7 °F 16.7 °F 1016.8 in WSW 5.6 mph 5.6 mph 61 % 0.0 in
22:29 24.7 °F 16.9 °F 1017.8 in WSW 3.7 mph 3.7 mph 62 % 0.0 in
22:34 24.6 °F 16.8 °F 1017.8 in SW 3.7 mph 3.7 mph 62 % 0.0 in
22:39 24.5 °F 17.0 °F 1017.8 in WSW 2.3 mph 2.3 mph 63 % 0.0 in
22:44 24.4 °F 16.9 °F 1016.8 in West 3.9 mph 3.9 mph 63 % 0.0 in
22:49 24.4 °F 16.9 °F 1016.8 in West 3.7 mph 3.7 mph 63 % 0.0 in
22:54 24.3 °F 17.1 °F 1016.8 in West 3.7 mph 3.7 mph 64 % 0.0 in
22:59 24.3 °F 17.1 °F 1017.8 in West 3.7 mph 3.7 mph 64 % 0.0 in
23:04 24.2 °F 16.9 °F 1017.8 in West 3.7 mph 3.7 mph 64 % 0.0 in
23:09 24.1 °F 17.1 °F 1017.8 in SW 3.7 mph 3.7 mph 65 % 0.0 in
23:14 24.1 °F 17.1 °F 1017.8 in WNW 3.7 mph 3.7 mph 65 % 0.0 in
23:19 24.0 °F 17.3 °F 1017.8 in WSW 3.7 mph 3.7 mph 66 % 0.0 in
23:24 24.0 °F 17.3 °F 1017.8 in NW 1.9 mph   66 % 0.0 in
23:29 24.0 °F 17.3 °F 1016.8 in WSW 4.2 mph 4.2 mph 66 % 0.0 in
23:34 23.9 °F 17.6 °F 1016.8 in Calm     68 % 0.0 in
23:39 23.9 °F 17.6 °F 1016.8 in Calm     68 % 0.0 in
23:44 23.8 °F 17.6 °F 1017.8 in West 1.9 mph 2.3 mph 68 % 0.0 in
23:49 23.8 °F 17.6 °F 1017.8 in WSW 1.9 mph   68 % 0.0 in
23:54 23.7 °F 17.7 °F 1017.8 in Calm     69 % 0.0 in
23:59 23.7 °F 17.7 °F 1016.8 in WSW 3.7 mph 3.7 mph 69 % 0.0 in
Meteo Sesrovires
Elogis d' Weather Underground - 1.75 mb

Guio original per  Jim McMurry - jmcmurry@mwt.net Adaptat per a la plantilla per  Wim van der Kuil - Leuven-Template.eu

Trobareu la nostra informacio del temps tambe a:

Weather Underground

AWEKAS